createdAt,value
2023-04-16T00:05:11.720Z,16.07
2023-04-16T00:11:13.190Z,15.10
2023-04-16T00:17:14.656Z,16.27
2023-04-16T00:23:16.376Z,15.40
2023-04-16T00:29:17.832Z,15.05
2023-04-16T00:35:19.480Z,15.63
2023-04-16T00:41:21.501Z,16.60
2023-04-16T00:47:22.980Z,16.67
2023-04-16T00:53:24.412Z,16.80
2023-04-16T00:59:26.516Z,16.88
2023-04-16T01:05:27.936Z,16.67
2023-04-16T01:11:29.371Z,17.55
2023-04-16T01:17:30.957Z,16.80
2023-04-16T01:23:32.486Z,15.30
2023-04-16T01:29:33.875Z,16.42
2023-04-16T01:35:35.911Z,15.00
2023-04-16T01:41:37.376Z,14.93
2023-04-16T01:47:38.847Z,15.60
2023-04-16T01:53:40.457Z,15.67
2023-04-16T01:59:41.842Z,14.85
2023-04-16T02:05:43.303Z,12.63
2023-04-16T02:11:44.803Z,11.70
2023-04-16T02:17:47.873Z,11.55
2023-04-16T02:23:51.555Z,11.47
2023-04-16T02:29:57.386Z,11.32
2023-04-16T02:35:58.968Z,10.43
2023-04-16T02:42:02.464Z,10.90
2023-04-16T02:48:04.075Z,10.60
2023-04-16T02:54:05.770Z,10.77
2023-04-16T03:00:08.096Z,9.85
2023-04-16T03:06:09.528Z,9.48
2023-04-16T03:12:11.035Z,8.27
2023-04-16T03:18:13.215Z,8.55
2023-04-16T03:24:14.681Z,8.63
2023-04-16T03:30:16.340Z,9.63
2023-04-16T03:36:18.708Z,9.30
2023-04-16T03:42:20.156Z,9.40
2023-04-16T03:48:21.731Z,8.43
2023-04-16T03:54:23.295Z,7.63
2023-04-16T04:00:31.914Z,6.90
2023-04-16T04:06:40.877Z,6.13
2023-04-16T04:12:42.885Z,6.93
2023-04-16T04:18:44.667Z,7.55
2023-04-16T04:24:46.375Z,7.40
2023-04-16T04:30:48.300Z,7.57
2023-04-16T04:36:50.433Z,7.57
2023-04-16T04:42:52.095Z,8.37
2023-04-16T04:48:56.104Z,8.60
2023-04-16T04:54:57.570Z,8.33
2023-04-16T05:00:59.352Z,7.13
2023-04-16T05:07:01.726Z,7.38
2023-04-16T05:13:03.192Z,6.53
2023-04-16T05:19:04.570Z,6.60
2023-04-16T05:25:06.128Z,6.50
2023-04-16T05:31:07.596Z,5.90
2023-04-16T05:37:09.147Z,7.30
2023-04-16T05:43:10.576Z,6.50
2023-04-16T05:49:12.135Z,6.82
2023-04-16T05:55:13.656Z,7.03
2023-04-16T06:01:15.070Z,6.95
2023-04-16T06:07:16.555Z,7.05
2023-04-16T06:13:18.028Z,6.53
2023-04-16T06:19:19.395Z,6.47
2023-04-16T06:25:20.846Z,5.93
2023-04-16T06:31:22.342Z,6.07
2023-04-16T06:37:24.004Z,6.05
2023-04-16T06:43:25.553Z,5.60
2023-04-16T06:49:27.073Z,5.75
2023-04-16T06:55:28.468Z,5.13
2023-04-16T07:01:31.278Z,5.57
2023-04-16T07:07:32.863Z,4.93
2023-04-16T07:13:34.308Z,5.87
2023-04-16T07:19:35.888Z,4.80
2023-04-16T07:25:37.310Z,4.83
2023-04-16T07:31:38.785Z,5.75
2023-04-16T07:37:41.311Z,5.13
2023-04-16T07:43:42.693Z,5.13
2023-04-16T07:49:44.104Z,4.85
2023-04-16T07:55:45.707Z,4.43
2023-04-16T08:01:47.129Z,4.65
2023-04-16T08:07:48.487Z,5.18
2023-04-16T08:13:49.904Z,6.40
2023-04-16T08:19:51.341Z,7.10
2023-04-16T08:25:53.165Z,7.63
2023-04-16T08:31:54.865Z,7.63
2023-04-16T08:37:57.853Z,5.22
2023-04-16T08:44:00.748Z,4.93
2023-04-16T08:50:03.473Z,4.50
2023-04-16T08:56:05.517Z,6.10
2023-04-16T09:02:07.312Z,7.80
2023-04-16T09:08:09.115Z,9.75
2023-04-16T09:14:12.058Z,11.23
2023-04-16T09:20:13.537Z,11.45
2023-04-16T09:26:15.266Z,11.07
2023-04-16T09:32:16.719Z,10.20
2023-04-16T09:38:18.898Z,9.45
2023-04-16T09:44:20.346Z,10.00
2023-04-16T09:50:21.818Z,9.27
2023-04-16T09:56:24.830Z,10.17
2023-04-16T10:02:29.630Z,9.00
2023-04-16T10:08:31.176Z,8.35
2023-04-16T10:14:33.770Z,8.43
2023-04-16T10:20:35.335Z,8.55
2023-04-16T10:26:37.066Z,8.77
2023-04-16T10:32:38.782Z,7.78
2023-04-16T10:38:41.491Z,8.15
2023-04-16T10:44:45.450Z,8.00
2023-04-16T10:50:57.371Z,8.27
2023-04-16T10:57:00.776Z,7.07
2023-04-16T11:03:04.446Z,7.13
2023-04-16T11:09:06.009Z,7.35
2023-04-16T11:15:08.553Z,6.67
2023-04-16T11:21:10.898Z,5.90
2023-04-16T11:27:13.203Z,5.80
2023-04-16T11:33:14.674Z,5.47
2023-04-16T11:39:16.296Z,5.30
2023-04-16T11:45:19.386Z,4.67
2023-04-16T11:51:23.108Z,4.95
2023-04-16T11:57:31.788Z,5.03
2023-04-16T12:03:46.258Z,4.95
2023-04-16T12:09:48.013Z,4.82
2023-04-16T12:15:50.586Z,4.37
2023-04-16T12:21:52.109Z,4.47
2023-04-16T12:27:55.688Z,5.30
2023-04-16T12:34:06.138Z,5.45
2023-04-16T12:40:09.423Z,5.22
2023-04-16T12:46:11.043Z,5.17
2023-04-16T12:52:12.609Z,5.47
2023-04-16T12:58:14.091Z,5.43
2023-04-16T13:04:16.244Z,5.15
2023-04-16T13:10:18.027Z,5.90
2023-04-16T13:16:19.649Z,6.47
2023-04-16T13:22:21.201Z,6.28
2023-04-16T13:28:22.716Z,6.57
2023-04-16T13:34:24.251Z,6.97
2023-04-16T13:40:25.952Z,7.03
2023-04-16T13:46:27.628Z,7.70
2023-04-16T13:52:29.059Z,10.77
2023-04-16T13:58:30.633Z,9.40
2023-04-16T14:04:32.124Z,9.50
2023-04-16T14:10:33.581Z,11.70
2023-04-16T14:16:35.397Z,10.97
2023-04-16T14:22:36.965Z,9.48
2023-04-16T14:28:39.290Z,10.17
2023-04-16T14:34:40.837Z,10.57
2023-04-16T14:40:42.470Z,9.23
2023-04-16T14:46:44.620Z,10.03
2023-04-16T14:52:46.140Z,9.38
2023-04-16T14:58:47.649Z,9.37
2023-04-16T15:04:49.104Z,9.35
2023-04-16T15:10:51.056Z,9.27
2023-04-16T15:16:52.891Z,8.90
2023-04-16T15:22:54.414Z,10.15
2023-04-16T15:28:56.016Z,9.80
2023-04-16T15:34:57.522Z,9.38
2023-04-16T15:41:00.689Z,9.10
2023-04-16T15:47:02.167Z,9.27
2023-04-16T15:53:03.800Z,8.40
2023-04-16T15:59:05.237Z,8.27
2023-04-16T16:05:09.275Z,8.30
2023-04-16T16:11:11.822Z,7.75
2023-04-16T16:17:13.377Z,6.90
2023-04-16T16:23:14.917Z,5.90
2023-04-16T16:29:16.492Z,6.97
2023-04-16T16:35:18.106Z,7.20
2023-04-16T16:41:19.682Z,7.22
2023-04-16T16:47:21.513Z,7.17
2023-04-16T16:53:23.083Z,6.95
2023-04-16T16:59:24.564Z,6.03
2023-04-16T17:05:26.282Z,6.05
2023-04-16T17:11:27.815Z,6.70
2023-04-16T17:17:29.434Z,6.20
2023-04-16T17:23:31.036Z,6.50
2023-04-16T17:29:32.844Z,7.60
2023-04-16T17:35:34.630Z,8.60
2023-04-16T17:41:36.149Z,8.88
2023-04-16T17:47:38.856Z,9.57
2023-04-16T17:53:42.605Z,9.13
2023-04-16T17:59:44.248Z,9.63
2023-04-16T18:05:45.969Z,10.85
2023-04-16T18:11:47.644Z,11.00
2023-04-16T18:17:49.429Z,10.73
2023-04-16T18:23:51.094Z,10.90
2023-04-16T18:29:54.703Z,12.10
2023-04-16T18:35:56.799Z,11.55
2023-04-16T18:41:58.645Z,11.27
2023-04-16T18:48:02.910Z,11.53
2023-04-16T18:54:04.581Z,11.07
2023-04-16T19:00:11.141Z,11.07
2023-04-16T19:06:14.446Z,10.88
2023-04-16T19:12:16.292Z,11.98
2023-04-16T19:18:18.062Z,12.50
2023-04-16T19:24:21.092Z,13.95
2023-04-16T19:30:22.860Z,13.17
2023-04-16T19:36:24.861Z,13.43
2023-04-16T19:42:26.414Z,13.20
2023-04-16T19:48:28.038Z,13.03
2023-04-16T19:54:29.789Z,13.32
2023-04-16T20:00:36.056Z,14.17
2023-04-16T20:06:37.990Z,12.98
2023-04-16T20:12:39.602Z,12.27
2023-04-16T20:18:46.172Z,11.97
2023-04-16T20:24:48.344Z,12.90
2023-04-16T20:30:50.982Z,11.67
2023-04-16T20:36:54.234Z,12.68
2023-04-16T20:43:01.575Z,11.90
2023-04-16T20:49:03.102Z,12.23
2023-04-16T20:55:04.851Z,12.10
2023-04-16T21:01:06.382Z,11.37
2023-04-16T21:07:07.881Z,11.65
2023-04-16T21:13:12.451Z,12.18
2023-04-16T21:19:13.947Z,11.60
2023-04-16T21:25:15.942Z,12.05
2023-04-16T21:31:17.455Z,11.67
2023-04-16T21:37:18.999Z,10.90
2023-04-16T21:43:20.830Z,10.00
2023-04-16T21:49:22.368Z,9.57
2023-04-16T21:55:23.865Z,9.20
2023-04-16T22:01:25.430Z,8.73
2023-04-16T22:07:27.190Z,9.05
2023-04-16T22:13:30.071Z,8.20
2023-04-16T22:19:31.920Z,7.80
2023-04-16T22:25:33.529Z,8.25
2023-04-16T22:31:34.970Z,8.13
2023-04-16T22:37:36.854Z,7.43
2023-04-16T22:43:38.419Z,7.95
2023-04-16T22:49:39.894Z,7.37
2023-04-16T22:55:41.333Z,7.82
2023-04-16T23:01:43.027Z,8.17
2023-04-16T23:07:44.549Z,8.43
2023-04-16T23:13:46.238Z,8.57
2023-04-16T23:19:47.690Z,8.17
2023-04-16T23:25:51.720Z,9.05
2023-04-16T23:31:53.224Z,9.03
2023-04-16T23:37:54.839Z,8.82
2023-04-16T23:43:56.335Z,10.07
2023-04-16T23:49:57.747Z,9.87
2023-04-16T23:55:59.137Z,11.00
